createdAt,value
2022-09-16T00:00:31.688Z,37.50
2022-09-16T00:02:59.113Z,38.60
2022-09-16T00:05:26.516Z,38.70
2022-09-16T00:07:54.608Z,38.30
2022-09-16T00:10:22.770Z,38.40
2022-09-16T00:12:50.038Z,40.40
2022-09-16T00:15:17.610Z,40.80
2022-09-16T00:17:44.505Z,39.90
2022-09-16T00:20:11.402Z,39.60
2022-09-16T00:22:38.256Z,39.40
2022-09-16T00:25:05.603Z,39.10
2022-09-16T00:27:32.545Z,39.60
2022-09-16T00:29:59.475Z,39.30
2022-09-16T00:32:26.421Z,39.10
2022-09-16T00:34:53.560Z,39.00
2022-09-16T00:37:20.465Z,38.50
2022-09-16T00:39:51.135Z,38.20
2022-09-16T00:42:18.976Z,38.00
2022-09-16T00:44:57.030Z,38.00
2022-09-16T00:47:35.379Z,37.40
2022-09-16T00:50:18.779Z,37.40
2022-09-16T00:52:46.211Z,36.90
2022-09-16T00:55:25.107Z,37.40
2022-09-16T00:57:53.748Z,37.30
2022-09-16T01:00:20.807Z,37.20
2022-09-16T01:02:48.419Z,37.50
2022-09-16T01:05:22.328Z,39.30
2022-09-16T01:07:51.543Z,38.70
2022-09-16T01:10:21.104Z,39.40
2022-09-16T01:12:51.989Z,40.40
2022-09-16T01:15:19.330Z,41.00
2022-09-16T01:18:05.081Z,41.70
2022-09-16T01:20:47.139Z,42.00
2022-09-16T01:23:53.100Z,42.90
2022-09-16T01:26:22.838Z,43.50
2022-09-16T01:29:21.455Z,43.20
2022-09-16T01:32:19.219Z,43.10
2022-09-16T01:34:48.969Z,42.20
2022-09-16T01:37:43.748Z,40.90
2022-09-16T01:40:38.922Z,41.90
2022-09-16T01:43:28.195Z,42.60
2022-09-16T01:46:05.099Z,41.90
2022-09-16T01:48:58.226Z,41.80
2022-09-16T01:51:27.908Z,41.80
2022-09-16T01:54:07.762Z,41.90
2022-09-16T01:57:06.108Z,41.80
2022-09-16T01:59:44.929Z,41.60
2022-09-16T02:02:29.839Z,41.90
2022-09-16T02:05:03.789Z,40.80
2022-09-16T02:07:34.599Z,40.20
2022-09-16T02:10:18.543Z,39.70
2022-09-16T02:12:49.055Z,39.00
2022-09-16T02:15:22.266Z,38.60
2022-09-16T02:17:57.325Z,38.60
2022-09-16T02:20:27.492Z,38.60
2022-09-16T02:23:06.334Z,38.70
2022-09-16T02:25:38.189Z,38.30
2022-09-16T02:28:12.835Z,38.00
2022-09-16T02:30:44.257Z,38.80
2022-09-16T02:33:13.556Z,37.40
2022-09-16T02:35:41.977Z,37.40
2022-09-16T02:38:17.472Z,37.30
2022-09-16T02:40:51.143Z,37.20
2022-09-16T02:43:18.837Z,37.20
2022-09-16T02:45:48.637Z,37.30
2022-09-16T02:48:41.092Z,37.30
2022-09-16T02:51:19.102Z,36.80
2022-09-16T02:53:58.342Z,36.60
2022-09-16T02:56:36.080Z,36.60
2022-09-16T02:59:05.873Z,37.20
2022-09-16T03:01:36.996Z,37.50
2022-09-16T03:04:04.331Z,37.60
2022-09-16T03:06:36.088Z,37.80
2022-09-16T03:09:09.643Z,37.90
2022-09-16T03:11:48.979Z,37.70
2022-09-16T03:14:36.389Z,37.30
2022-09-16T03:17:51.938Z,36.90
2022-09-16T03:20:48.360Z,37.10
2022-09-16T03:23:33.239Z,37.30
2022-09-16T03:26:31.016Z,38.00
2022-09-16T03:29:18.168Z,37.60
2022-09-16T03:32:04.639Z,37.50
2022-09-16T03:34:43.714Z,38.10
2022-09-16T03:37:15.164Z,38.00
2022-09-16T03:39:42.685Z,38.00
2022-09-16T03:42:11.462Z,38.00
2022-09-16T03:44:40.364Z,38.20
2022-09-16T03:47:08.443Z,38.50
2022-09-16T03:49:36.275Z,38.90
2022-09-16T03:52:07.941Z,38.80
2022-09-16T03:54:36.343Z,38.80
2022-09-16T03:57:04.365Z,39.00
2022-09-16T03:59:31.442Z,39.20
2022-09-16T04:01:58.518Z,39.40
2022-09-16T04:04:25.549Z,39.40
2022-09-16T04:06:52.395Z,39.40
2022-09-16T04:09:19.269Z,39.40
2022-09-16T04:11:46.065Z,39.30
2022-09-16T04:14:12.983Z,39.40
2022-09-16T04:16:44.382Z,39.30
2022-09-16T04:19:15.231Z,39.00
2022-09-16T04:21:42.387Z,39.10
2022-09-16T04:24:12.871Z,39.60
2022-09-16T04:26:41.107Z,39.80
2022-09-16T04:29:08.099Z,39.80
2022-09-16T04:31:35.566Z,39.80
2022-09-16T04:34:03.412Z,39.80
2022-09-16T04:36:31.161Z,39.90
2022-09-16T04:38:58.109Z,39.70
2022-09-16T04:41:26.839Z,39.80
2022-09-16T04:43:58.854Z,40.00
2022-09-16T04:46:27.557Z,40.30
2022-09-16T04:48:55.872Z,40.70
2022-09-16T04:51:23.753Z,40.80
2022-09-16T04:53:50.718Z,41.10
2022-09-16T04:56:19.737Z,41.30
2022-09-16T04:58:49.230Z,41.30
2022-09-16T05:01:19.364Z,41.70
2022-09-16T05:03:48.728Z,41.70
2022-09-16T05:06:20.634Z,41.80
2022-09-16T05:08:49.125Z,42.50
2022-09-16T05:11:31.833Z,42.20
2022-09-16T05:13:59.427Z,41.80
2022-09-16T05:16:27.609Z,42.30
2022-09-16T05:18:56.643Z,42.60
2022-09-16T05:21:25.389Z,42.60
2022-09-16T05:23:52.771Z,42.70
2022-09-16T05:26:25.765Z,43.00
2022-09-16T05:28:53.332Z,42.90
2022-09-16T05:31:26.711Z,42.90
2022-09-16T05:34:02.307Z,42.80
2022-09-16T05:36:32.469Z,42.80
2022-09-16T05:39:21.675Z,41.40
2022-09-16T05:41:47.708Z,43.10
2022-09-16T05:44:15.485Z,43.30
2022-09-16T05:46:45.826Z,43.30
2022-09-16T05:49:12.723Z,43.30
2022-09-16T05:51:41.364Z,43.50
2022-09-16T05:54:08.833Z,43.60
2022-09-16T05:56:36.010Z,43.70
2022-09-16T05:59:03.156Z,43.70
2022-09-16T06:01:34.985Z,43.60
2022-09-16T06:04:05.420Z,43.50
2022-09-16T06:06:34.938Z,43.80
2022-09-16T06:09:13.694Z,43.60
2022-09-16T06:11:42.695Z,43.40
2022-09-16T06:14:10.808Z,43.90
2022-09-16T06:16:38.075Z,44.00
2022-09-16T06:19:10.698Z,44.10
2022-09-16T06:21:38.497Z,43.90
2022-09-16T06:24:09.098Z,44.10
2022-09-16T06:26:39.086Z,44.10
2022-09-16T06:29:06.463Z,43.90
2022-09-16T06:31:34.785Z,43.90
2022-09-16T06:34:02.483Z,43.80
2022-09-16T06:36:31.727Z,43.70
2022-09-16T06:38:58.856Z,43.80
2022-09-16T06:41:26.186Z,44.30
2022-09-16T06:43:53.552Z,44.70
2022-09-16T06:46:23.943Z,44.90
2022-09-16T06:48:59.306Z,45.30
2022-09-16T06:51:31.295Z,45.00
2022-09-16T06:54:03.981Z,45.70
2022-09-16T06:56:31.137Z,45.80
2022-09-16T06:58:58.173Z,46.00
2022-09-16T07:01:28.304Z,45.90
2022-09-16T07:03:57.617Z,45.80
2022-09-16T07:06:50.796Z,45.70
2022-09-16T07:09:14.790Z,45.60
2022-09-16T07:11:41.853Z,45.30
2022-09-16T07:14:09.642Z,46.60
2022-09-16T07:16:37.152Z,45.20
2022-09-16T07:19:04.774Z,45.30
2022-09-16T07:21:32.104Z,45.30
2022-09-16T07:24:01.336Z,45.60
2022-09-16T07:26:31.469Z,45.50
2022-09-16T07:29:03.564Z,45.70
2022-09-16T07:31:33.413Z,46.00
2022-09-16T07:34:04.753Z,48.60
2022-09-16T07:36:35.467Z,49.50
2022-09-16T07:39:03.348Z,48.30
2022-09-16T07:41:35.554Z,47.10
2022-09-16T07:44:03.571Z,45.90
2022-09-16T07:46:33.039Z,45.10
2022-09-16T07:49:01.571Z,44.40
2022-09-16T07:51:29.765Z,43.80
2022-09-16T07:54:03.631Z,43.70
2022-09-16T07:56:34.504Z,43.50
2022-09-16T07:59:03.320Z,43.30
2022-09-16T08:01:33.338Z,43.20
2022-09-16T08:04:01.338Z,43.20
2022-09-16T08:06:30.593Z,43.00
2022-09-16T08:09:10.055Z,42.50
2022-09-16T08:11:46.843Z,41.90
2022-09-16T08:14:13.779Z,41.80
2022-09-16T08:16:40.599Z,41.10
2022-09-16T08:19:07.584Z,40.30
2022-09-16T08:21:34.586Z,39.90
2022-09-16T08:24:01.607Z,39.50
2022-09-16T08:26:28.372Z,39.90
2022-09-16T08:29:08.526Z,40.10
2022-09-16T08:31:37.088Z,37.60
2022-09-16T08:34:04.836Z,41.30
2022-09-16T08:36:33.612Z,41.60
2022-09-16T08:39:00.613Z,44.60
2022-09-16T08:41:45.845Z,48.40
2022-09-16T08:44:25.059Z,48.40
2022-09-16T08:47:02.453Z,49.00
2022-09-16T08:49:48.760Z,48.50
2022-09-16T08:52:32.091Z,39.50
2022-09-16T08:55:07.247Z,42.50
2022-09-16T08:58:06.128Z,45.30
2022-09-16T09:00:34.210Z,45.50
2022-09-16T09:03:27.687Z,47.80
2022-09-16T09:05:57.256Z,47.70
2022-09-16T09:08:48.462Z,47.80
2022-09-16T09:11:26.155Z,45.20
2022-09-16T09:13:53.201Z,45.20
2022-09-16T09:16:38.554Z,44.00
2022-09-16T09:19:17.464Z,43.60
2022-09-16T09:22:13.903Z,43.20
2022-09-16T09:24:56.636Z,43.20
2022-09-16T09:27:35.466Z,44.70
2022-09-16T09:30:11.386Z,43.50
2022-09-16T09:32:49.573Z,41.50
2022-09-16T09:35:58.652Z,40.90
2022-09-16T09:38:41.423Z,41.10
2022-09-16T09:41:33.864Z,41.40
2022-09-16T09:44:26.438Z,40.80
2022-09-16T09:46:56.780Z,40.00
2022-09-16T09:49:33.208Z,42.10
2022-09-16T09:52:11.323Z,42.50
2022-09-16T09:54:39.023Z,42.30
2022-09-16T09:57:23.450Z,42.90
2022-09-16T10:00:17.998Z,43.30
2022-09-16T10:02:49.536Z,42.10
2022-09-16T10:05:26.197Z,41.00
2022-09-16T10:07:57.494Z,39.00
2022-09-16T10:10:27.401Z,40.00
2022-09-16T10:12:54.611Z,40.00
2022-09-16T10:15:24.381Z,40.50
2022-09-16T10:17:53.102Z,41.50
2022-09-16T10:20:34.982Z,42.20
2022-09-16T10:23:24.356Z,41.90
2022-09-16T10:26:16.741Z,41.70
2022-09-16T10:29:04.015Z,43.50
2022-09-16T10:31:37.571Z,43.80
2022-09-16T10:34:12.992Z,43.40
2022-09-16T10:36:39.945Z,43.70
2022-09-16T10:39:17.473Z,44.40
2022-09-16T10:41:47.585Z,43.60
2022-09-16T10:44:28.926Z,40.90
2022-09-16T10:46:57.729Z,40.70
2022-09-16T10:49:55.842Z,37.10
2022-09-16T10:52:25.655Z,33.20
2022-09-16T10:54:53.606Z,35.00
2022-09-16T10:57:26.317Z,32.50
2022-09-16T11:00:18.939Z,31.10
2022-09-16T11:02:57.798Z,31.70
2022-09-16T11:05:35.627Z,29.20
2022-09-16T11:08:11.419Z,26.00
2022-09-16T11:10:48.738Z,29.60
2022-09-16T11:14:06.166Z,26.60
2022-09-16T11:16:49.307Z,22.70
2022-09-16T11:19:26.103Z,28.40
2022-09-16T11:22:44.844Z,27.80
2022-09-16T11:25:29.990Z,22.70
2022-09-16T11:28:15.689Z,22.80
2022-09-16T11:31:03.947Z,22.80
2022-09-16T11:33:41.918Z,21.00
2022-09-16T11:36:35.259Z,18.80
2022-09-16T11:39:35.029Z,14.80
2022-09-16T11:42:05.089Z,17.00
2022-09-16T11:45:16.803Z,16.20
2022-09-16T11:48:02.467Z,14.30
2022-09-16T11:50:55.774Z,16.60
2022-09-16T11:53:34.719Z,16.60
2022-09-16T11:56:17.373Z,20.30
2022-09-16T11:58:58.611Z,16.40
2022-09-16T12:01:36.822Z,18.10
2022-09-16T12:04:16.073Z,16.60
2022-09-16T12:06:56.736Z,15.90
2022-09-16T12:09:34.446Z,14.60
2022-09-16T12:12:12.104Z,15.00
2022-09-16T12:15:05.524Z,13.40
2022-09-16T12:17:36.996Z,16.20
2022-09-16T12:20:29.248Z,17.70
2022-09-16T12:23:39.089Z,19.10
2022-09-16T12:26:20.776Z,16.80
2022-09-16T12:28:52.827Z,16.40
2022-09-16T12:31:53.911Z,17.90
2022-09-16T12:34:46.112Z,17.10
2022-09-16T12:37:39.262Z,17.00
2022-09-16T12:40:14.828Z,20.70
2022-09-16T12:42:45.925Z,19.90
2022-09-16T12:45:34.779Z,21.30
2022-09-16T12:48:17.555Z,19.60
2022-09-16T12:50:52.953Z,17.60
2022-09-16T12:53:50.887Z,16.60
2022-09-16T12:56:39.287Z,12.70
2022-09-16T12:59:32.824Z,14.60
2022-09-16T13:02:11.582Z,13.10
2022-09-16T13:04:43.054Z,16.80
2022-09-16T13:07:30.103Z,14.90
2022-09-16T13:10:14.238Z,13.40
2022-09-16T13:12:44.480Z,11.70
2022-09-16T13:15:41.999Z,11.90
2022-09-16T13:18:08.930Z,14.80
2022-09-16T13:21:00.787Z,13.80
2022-09-16T13:23:40.390Z,14.00
2022-09-16T13:26:09.523Z,13.50
2022-09-16T13:28:40.020Z,12.80
2022-09-16T13:31:17.572Z,13.10
2022-09-16T13:33:48.650Z,12.90
2022-09-16T13:36:22.467Z,13.70
2022-09-16T13:38:52.060Z,12.80
2022-09-16T13:41:31.351Z,15.90
2022-09-16T13:43:58.259Z,15.50
2022-09-16T13:46:38.001Z,16.90
2022-09-16T13:49:05.403Z,17.30
2022-09-16T13:51:46.355Z,17.80
2022-09-16T13:54:53.577Z,17.00
2022-09-16T13:57:49.889Z,17.60
2022-09-16T14:00:32.388Z,17.90
2022-09-16T14:03:49.904Z,19.40
2022-09-16T14:06:30.997Z,18.00
2022-09-16T14:09:19.557Z,20.00
2022-09-16T14:12:05.113Z,19.30
2022-09-16T14:14:50.381Z,19.20
2022-09-16T14:17:28.578Z,18.90
2022-09-16T14:20:00.468Z,17.40
2022-09-16T14:22:28.070Z,15.90
2022-09-16T14:25:05.959Z,16.10
2022-09-16T14:27:39.898Z,15.90
2022-09-16T14:30:16.928Z,15.00
2022-09-16T14:32:45.989Z,10.80
2022-09-16T14:35:21.385Z,14.00
2022-09-16T14:37:53.031Z,14.30
2022-09-16T14:40:23.458Z,14.10
2022-09-16T14:43:15.284Z,15.30
2022-09-16T14:45:48.506Z,15.30
2022-09-16T14:48:16.865Z,15.30
2022-09-16T14:50:49.913Z,15.00
2022-09-16T14:53:35.706Z,15.10
2022-09-16T14:56:04.927Z,15.00
2022-09-16T14:58:33.999Z,15.20
2022-09-16T15:01:07.557Z,14.50
2022-09-16T15:03:55.203Z,14.70
2022-09-16T15:06:26.990Z,14.60
2022-09-16T15:09:32.586Z,14.70
2022-09-16T15:12:01.148Z,12.00
2022-09-16T15:14:28.824Z,14.40
2022-09-16T15:17:03.829Z,14.90
2022-09-16T15:19:38.044Z,14.90
2022-09-16T15:22:13.253Z,14.60
2022-09-16T15:24:41.623Z,15.20
2022-09-16T15:27:09.397Z,15.50
2022-09-16T15:29:49.363Z,15.60
2022-09-16T15:32:23.240Z,14.90
2022-09-16T15:35:21.741Z,15.70
2022-09-16T15:37:49.660Z,14.90
2022-09-16T15:40:26.005Z,15.90
2022-09-16T15:43:27.842Z,13.70
2022-09-16T15:46:13.264Z,14.00
2022-09-16T15:48:46.771Z,11.60
2022-09-16T15:51:33.560Z,13.20
2022-09-16T15:54:40.492Z,11.70
2022-09-16T15:57:16.262Z,12.90
2022-09-16T16:00:05.020Z,12.80
2022-09-16T16:02:40.311Z,11.20
2022-09-16T16:05:12.747Z,12.20
2022-09-16T16:07:46.909Z,11.90
2022-09-16T16:10:19.800Z,11.30
2022-09-16T16:12:49.238Z,9.30
2022-09-16T16:15:18.922Z,8.80
2022-09-16T16:17:47.562Z,9.50
2022-09-16T16:20:15.993Z,9.60
2022-09-16T16:22:46.246Z,8.60
2022-09-16T16:25:14.060Z,8.30
2022-09-16T16:27:41.122Z,8.70
2022-09-16T16:30:09.138Z,9.00
2022-09-16T16:32:38.506Z,10.00
2022-09-16T16:35:06.384Z,10.40
2022-09-16T16:37:46.050Z,9.90
2022-09-16T16:40:14.975Z,10.00
2022-09-16T16:42:46.656Z,10.30
2022-09-16T16:45:14.375Z,11.40
2022-09-16T16:47:42.045Z,11.80
2022-09-16T16:50:09.535Z,12.30
2022-09-16T16:52:37.015Z,12.30
2022-09-16T16:55:04.869Z,12.40
2022-09-16T16:57:32.054Z,12.30
2022-09-16T16:59:59.101Z,12.30
2022-09-16T17:02:26.286Z,12.30
2022-09-16T17:04:53.441Z,12.30
2022-09-16T17:07:28.228Z,12.10
2022-09-16T17:09:57.456Z,12.20
2022-09-16T17:12:25.722Z,12.30
2022-09-16T17:14:52.665Z,12.30
2022-09-16T17:17:19.707Z,12.30
2022-09-16T17:19:46.687Z,11.60
2022-09-16T17:22:13.501Z,11.90
2022-09-16T17:24:40.691Z,11.70
2022-09-16T17:27:07.611Z,12.30
2022-09-16T17:29:34.884Z,12.40
2022-09-16T17:32:03.087Z,12.10
2022-09-16T17:34:31.233Z,12.50
2022-09-16T17:36:58.674Z,12.80
2022-09-16T17:39:26.255Z,12.70
2022-09-16T17:41:54.670Z,13.00
2022-09-16T17:44:21.606Z,13.30
2022-09-16T17:46:48.865Z,13.40
2022-09-16T17:49:21.814Z,13.30
2022-09-16T17:51:50.069Z,12.90
2022-09-16T17:54:17.492Z,13.30
2022-09-16T17:56:44.727Z,13.30
2022-09-16T17:59:14.216Z,13.30
2022-09-16T18:01:41.409Z,13.60
2022-09-16T18:04:08.420Z,14.00
2022-09-16T18:06:41.096Z,14.40
2022-09-16T18:09:08.233Z,15.70
2022-09-16T18:11:36.679Z,18.70
2022-09-16T18:14:05.872Z,21.20
2022-09-16T18:16:32.989Z,20.90
2022-09-16T18:19:01.688Z,24.30
2022-09-16T18:21:29.425Z,24.60
2022-09-16T18:24:00.014Z,22.70
2022-09-16T18:26:28.170Z,23.60
2022-09-16T18:29:12.652Z,22.40
2022-09-16T18:31:42.088Z,20.80
2022-09-16T18:34:09.253Z,20.90
2022-09-16T18:36:37.815Z,21.00
2022-09-16T18:39:06.242Z,20.90
2022-09-16T18:41:41.003Z,21.00
2022-09-16T18:44:14.776Z,20.80
2022-09-16T18:46:42.155Z,20.50
2022-09-16T18:49:11.330Z,21.30
2022-09-16T18:51:40.843Z,21.30
2022-09-16T18:54:13.310Z,22.20
2022-09-16T18:56:41.299Z,23.60
2022-09-16T18:59:21.447Z,23.70
2022-09-16T19:01:50.506Z,24.20
2022-09-16T19:04:20.282Z,23.40
2022-09-16T19:06:49.790Z,23.30
2022-09-16T19:09:20.773Z,22.80
2022-09-16T19:11:49.432Z,22.80
2022-09-16T19:14:16.532Z,22.70
2022-09-16T19:16:45.250Z,22.50
2022-09-16T19:19:14.498Z,22.40
2022-09-16T19:21:42.587Z,21.90
2022-09-16T19:24:16.677Z,21.30
2022-09-16T19:26:45.511Z,21.40
2022-09-16T19:29:14.001Z,21.40
2022-09-16T19:31:42.743Z,21.40
2022-09-16T19:34:11.069Z,21.50
2022-09-16T19:36:39.459Z,21.30
2022-09-16T19:39:07.427Z,21.40
2022-09-16T19:41:37.626Z,21.40
2022-09-16T19:44:06.977Z,21.30
2022-09-16T19:46:36.169Z,21.30
2022-09-16T19:49:04.058Z,21.30
2022-09-16T19:51:31.739Z,21.30
2022-09-16T19:54:00.677Z,21.30
2022-09-16T19:56:31.988Z,21.90
2022-09-16T19:58:59.397Z,23.00
2022-09-16T20:01:29.374Z,23.20
2022-09-16T20:03:56.531Z,23.10
2022-09-16T20:06:30.783Z,23.20
2022-09-16T20:09:00.188Z,23.20
2022-09-16T20:11:33.540Z,23.90
2022-09-16T20:14:05.515Z,25.20
2022-09-16T20:16:38.812Z,26.20
2022-09-16T20:19:08.364Z,27.30
2022-09-16T20:21:35.759Z,28.80
2022-09-16T20:24:08.107Z,29.40
2022-09-16T20:26:35.974Z,30.20
2022-09-16T20:29:04.396Z,30.80
2022-09-16T20:31:34.173Z,30.60
2022-09-16T20:34:01.274Z,30.70
2022-09-16T20:36:30.721Z,30.40
2022-09-16T20:39:00.344Z,29.90
2022-09-16T20:41:32.930Z,29.70
2022-09-16T20:43:59.915Z,30.90
2022-09-16T20:46:32.230Z,30.20
2022-09-16T20:49:01.683Z,33.60
2022-09-16T20:51:33.643Z,35.90
2022-09-16T20:54:07.672Z,41.30
2022-09-16T20:56:38.498Z,44.10
2022-09-16T20:59:08.034Z,44.50
2022-09-16T21:01:37.045Z,46.20
2022-09-16T21:04:07.008Z,46.30
2022-09-16T21:06:36.002Z,49.70
2022-09-16T21:09:06.408Z,46.10
2022-09-16T21:11:33.283Z,46.10
2022-09-16T21:14:02.526Z,46.20
2022-09-16T21:16:31.894Z,46.20
2022-09-16T21:19:01.244Z,44.40
2022-09-16T21:21:29.255Z,43.30
2022-09-16T21:23:58.973Z,41.60
2022-09-16T21:26:28.742Z,41.00
2022-09-16T21:29:01.003Z,40.40
2022-09-16T21:31:30.158Z,38.00
2022-09-16T21:33:58.363Z,38.40
2022-09-16T21:36:29.662Z,37.60
2022-09-16T21:38:57.542Z,37.60
2022-09-16T21:41:25.341Z,36.10
2022-09-16T21:43:55.709Z,36.20
2022-09-16T21:46:35.042Z,38.00
2022-09-16T21:49:03.439Z,38.40
2022-09-16T21:51:35.191Z,39.70
2022-09-16T21:54:04.045Z,40.10
2022-09-16T21:56:31.356Z,40.10
2022-09-16T21:58:58.787Z,41.40
2022-09-16T22:01:28.065Z,41.60
2022-09-16T22:03:58.008Z,39.20
2022-09-16T22:06:26.302Z,38.60
2022-09-16T22:08:58.375Z,37.60
2022-09-16T22:11:27.586Z,36.80
2022-09-16T22:13:56.118Z,36.80
2022-09-16T22:16:28.735Z,35.60
2022-09-16T22:19:00.712Z,34.40
2022-09-16T22:21:30.145Z,33.20
2022-09-16T22:23:59.037Z,32.30
2022-09-16T22:26:26.871Z,31.50
2022-09-16T22:28:53.779Z,30.80
2022-09-16T22:31:23.783Z,30.00
2022-09-16T22:33:52.974Z,29.90
2022-09-16T22:36:22.770Z,28.40
2022-09-16T22:38:54.914Z,29.20
2022-09-16T22:41:22.666Z,29.00
2022-09-16T22:43:53.738Z,28.80
2022-09-16T22:46:34.507Z,28.60
2022-09-16T22:49:01.726Z,28.40
2022-09-16T22:51:29.202Z,28.20
2022-09-16T22:53:56.294Z,28.20
2022-09-16T22:56:31.966Z,28.40
2022-09-16T22:59:01.063Z,28.50
2022-09-16T23:01:31.984Z,28.40
2022-09-16T23:04:01.685Z,28.10
2022-09-16T23:06:30.299Z,28.10
2022-09-16T23:08:57.748Z,28.10
2022-09-16T23:11:28.712Z,28.10
2022-09-16T23:13:58.196Z,28.10
2022-09-16T23:16:26.975Z,27.70
2022-09-16T23:18:56.331Z,27.50
2022-09-16T23:21:24.680Z,26.50
2022-09-16T23:23:54.721Z,28.10
2022-09-16T23:26:24.379Z,29.30
2022-09-16T23:28:54.168Z,30.00
2022-09-16T23:31:23.809Z,29.90
2022-09-16T23:33:50.886Z,30.20
2022-09-16T23:36:19.056Z,30.30
2022-09-16T23:38:46.157Z,30.40
2022-09-16T23:41:16.248Z,30.00
2022-09-16T23:43:43.962Z,29.80
2022-09-16T23:46:14.223Z,29.70
2022-09-16T23:48:45.504Z,30.50
2022-09-16T23:51:13.242Z,30.60
2022-09-16T23:53:42.406Z,30.00
2022-09-16T23:56:12.126Z,29.90
2022-09-16T23:58:39.498Z,30.00
